Terminal Aerodrome Forecast
Issued by NWS

Current Version | Previous Version | Graphics & Text | Print | Product List | Glossary On
Versions: 1 2 3 4 5 6 7 8 9 10 11 12 13 14 15 16 17 18 19 20 21
000
FTUS41 KRLX 171359 AAA
TAFCKB
TAF AMD
KCKB 171359Z 1714/1812 00000KT 6SM BR BKN002
     FM171430 24005KT P6SM SKC
     FM180800 00000KT 2SM BR SCT001=

USA.gov is the U.S. government's official web portal to all federal, state and local government web resources and services.